Flight Track Log - Related Links

Times and Time Zones

All times are in EDT time to prevent confusion due to time zone crossing. See the UCA3599 flight status page for this flight to view local times or setup timezone preferences in your user account.

Time Position Orientation Groundspeed Altitude Reporting Facility
EDT Latitude Longitude Course Direction KTS MPH feet Rate Location/Type
Fri 06:20:00 AM 37.5815 -79.5773 51° Northeast  Level FlightAware Approximate
Fri 06:20:33 AM 37.2297 -80.0289 58° Northeast 197 227 5,000  Level Washington Center
Fri 06:21:00 AM 37.6249 -79.5108 51° Northeast  Level FlightAware Approximate
Fri 06:22:00 AM 37.6682 -79.4443 51° Northeast  Level FlightAware Approximate
Fri 06:22:09 AM 37.2536 -79.9442 70° East 200 230 7,400  Level Washington Center
Fri 06:23:00 AM 37.7114 -79.3776 51° Northeast  Level FlightAware Approximate
Fri 06:23:08 AM 37.2886 -79.9019 44° Northeast 184 212 8,800  Level Washington Center
Fri 06:24:00 AM 37.3573 -79.9043 61° Northeast  Level FlightAware Approximate
Fri 06:24:10 AM 37.3300 -79.8494 45° Northeast 179 206 10,000  Level Washington Center
Fri 06:25:00 AM 37.3969 -79.8395 58° Northeast  Level FlightAware Approximate
Fri 06:25:11 AM 37.3717 -79.7942 47° Northeast 197 227 11,000  Level Washington Center
Fri 06:26:09 AM 37.4219 -79.7317 45° Northeast 223 257 11,000  Level Washington Center
Fri 06:27:09 AM 37.4764 -79.6586 47° Northeast 270 311 11,000  Level Washington Center
Fri 06:28:09 AM 37.5222 -79.5983 46° Northeast 270 311 11,000  Level Washington Center
Fri 06:29:09 AM 37.5789 -79.5253 46° Northeast 265 305 11,000  Level Washington Center
Fri 06:30:11 AM 37.6247 -79.4672 45° Northeast 265 305 11,000  Level Washington Center
Fri 06:31:10 AM 37.6814 -79.3914 47° Northeast 265 305 11,000  Level Washington Center
Fri 06:32:11 AM 37.7311 -79.3361 41° Northeast 265 305 11,000  Level Washington Center
Fri 06:33:11 AM 37.7811 -79.2678 47° Northeast 265 305 11,000  Level Washington Center
Fri 06:34:09 AM 37.8311 -79.2044 45° Northeast 260 299 11,000 -151 Level Washington Center
Fri 06:35:10 AM 37.8811 -79.1383 46° Northeast 260 299 10,700 -504 Descending Washington Center
Fri 06:36:08 AM 37.9431 -79.0808 36° Northeast 254 292 10,000 -353 Descending Washington Center
Fri 06:37:09 AM 37.9989 -79.0306 35° Northeast 249 287 10,000 -100 Level Washington Center
Fri 06:38:08 AM 38.0383 -78.9586 55° Northeast 244 281 9,800 -595 Descending Washington Center
Fri 06:39:10 AM 38.0844 -78.8817 53° Northeast 251 289 8,800 -992 Descending Washington Center
Fri 06:40:09 AM 38.1261 -78.8042 56° Northeast 261 300 7,800 -900 Descending Washington Center
Fri 06:41:10 AM 38.1633 -78.7344 56° Northeast 261 300 7,000 -393 Descending Washington Center
Fri 06:42:11 AM 38.2050 -78.6622 54° Northeast 261 300 7,000  Level Washington Center
Fri 06:43:11 AM 38.2464 -78.5897 54° Northeast 254 292 7,000  Level Washington Center
Fri 06:44:10 AM 38.2858 -78.5122 57° Northeast 254 292 7,000  Level Washington Center
Fri 06:45:11 AM 38.3250 -78.4422 54° Northeast 254 292 7,000 -200 Level Washington Center
Fri 06:46:10 AM 38.3686 -78.3644 54° Northeast 259 298 6,600 -574 Descending Washington Center
Fri 06:48:40 AM 38.4833 -78.1667 53° Northeast 245 282 5,000 -444 Descending Potomac TRACON
Fri 06:49:46 AM 38.5167 -78.1000 57° Northeast 245 282 5,000  Level Potomac TRACON
Fri 06:50:40 AM 38.5333 -78.0167 76° East 245 282 5,000  Level Potomac TRACON
Fri 06:51:34 AM 38.5500 -77.9333 76° East 243 280 5,000  Level Potomac TRACON
Fri 06:52:34 AM 38.5667 -77.8500 76° East 244 281 5,000  Level Potomac TRACON
Fri 06:53:28 AM 38.5833 -77.7833 72° East 242 278 5,000  Level Potomac TRACON
Fri 06:54:22 AM 38.6000 -77.7167 72° East 241 277 5,000  Level Potomac TRACON
Fri 06:55:22 AM 38.6333 -77.6333 63° Northeast 242 278 5,000 -474 Level Potomac TRACON
Fri 06:56:16 AM 38.6667 -77.5833 49° Northeast 234 269 4,100 -737 Descending Potomac TRACON
Fri 06:57:16 AM 38.7167 -77.5333 38° Northeast 215 247 3,600 -550 Descending Potomac TRACON
Fri 06:58:16 AM 38.7667 -77.4833 38° Northeast 198 228 3,000 -365 Descending Potomac TRACON
Fri 06:59:11 AM 38.8000 -77.4667 21° North 185 213 2,900 -365 Descending Potomac TRACON
Fri 07:00:11 AM 38.8500 -77.4667 360° North 160 184 2,300 -750 Descending Potomac TRACON
Fri 07:01:11 AM 38.8833 -77.4667 360° North 123 142 1,400 -800 Descending Potomac TRACON
Fri 07:02:11 AM 38.9167 -77.4667 360° North 114 131 700 -504 Descending Potomac TRACON
Fri 07:03:10 AM 38.9500 -77.4667 360° North 116 133 400 -305 Descending Potomac TRACON
Fri 07:05:00 AM 38.9474 -77.4599 24° Northeast  Level Estimated
Fri 07:12:00 AM 38.9474 -77.4599 24° Northeast  Level Estimated

Login

Don't have an account? Register now (free) for customized features, flight alerts, and more!